Time;durP1;ratioP1;P1;durP2;ratioP2;P2;SDS_P1;SDS_P2;PMS_P1;PMS_P2;Temp;Humidity;BMP_temperature;BMP_pressure;BME280_temperature;BME280_humidity;BME280_pressure;Samples;Min_cycle;Max_cycle;Signal;HPM_P1;HPM_P2
2022/08/19 00:00:36;;;;;;;38.43;34.47;;;;;;;;;;4951792;28;20341;-40
2022/08/19 00:03:02;;;;;;;41.30;37.10;;;;;;;;;;4949658;28;20202;-42
2022/08/19 00:05:28;;;;;;;40.70;36.73;;;;;;;;;;4954190;28;20166;-42
2022/08/19 00:07:55;;;;;;;41.03;37.03;;;;;;;;;;4954494;28;20722;-41
2022/08/19 00:10:21;;;;;;;37.73;34.03;;;;;;;;;;4952951;28;20242;-42
2022/08/19 00:12:47;;;;;;;39.07;35.37;;;;;;;;;;4954726;28;20828;-41
2022/08/19 00:15:14;;;;;;;41.73;37.70;;;;;;;;;;4954158;28;20178;-41
2022/08/19 00:17:42;;;;;;;38.33;34.57;;;;;;;;;;4954402;28;20530;-42
2022/08/19 00:20:10;;;;;;;42.20;38.20;;;;;;;;;;4956530;28;20183;-41
2022/08/19 00:22:36;;;;;;;39.77;36.00;;;;;;;;;;4956918;28;20198;-42
2022/08/19 00:25:03;;;;;;;41.33;36.93;;;;;;;;;;4954821;28;20205;-42
2022/08/19 00:27:29;;;;;;;28.13;18.93;;;;;;;;;;4955108;28;20186;-42
2022/08/19 00:29:55;;;;;;;26.07;16.00;;;;;;;;;;4957030;28;20587;-43
2022/08/19 00:32:22;;;;;;;28.33;17.57;;;;;;;;;;4960679;28;20182;-43
2022/08/19 00:34:48;;;;;;;23.50;17.57;;;;;;;;;;4957123;28;20730;-43
2022/08/19 00:37:14;;;;;;;26.00;17.57;;;;;;;;;;4956007;28;20900;-41
2022/08/19 00:39:40;;;;;;;19.00;15.77;;;;;;;;;;4956173;28;20639;-40
2022/08/19 00:42:06;;;;;;;17.07;13.93;;;;;;;;;;4959498;28;20178;-41
2022/08/19 00:44:32;;;;;;;16.70;14.60;;;;;;;;;;4958445;28;21406;-39
2022/08/19 00:46:59;;;;;;;13.77;11.13;;;;;;;;;;4958208;28;21210;-38
2022/08/19 00:49:40;;;;;;;15.33;10.40;;;;;;;;;;4957189;28;20170;-41
2022/08/19 00:52:12;;;;;;;17.40;14.40;;;;;;;;;;4958749;28;20166;-40
2022/08/19 00:54:39;;;;;;;16.47;14.07;;;;;;;;;;4955640;28;20178;-39
2022/08/19 00:57:06;;;;;;;20.07;15.53;;;;;;;;;;4956667;28;20616;-37
2022/08/19 00:59:35;;;;;;;18.43;15.67;;;;;;;;;;4971131;28;20438;-41
2022/08/19 01:02:01;;;;;;;17.07;14.47;;;;;;;;;;4958747;28;20187;-40
2022/08/19 01:04:27;;;;;;;22.03;18.00;;;;;;;;;;4960019;28;20252;-41
2022/08/19 01:06:53;;;;;;;24.13;19.63;;;;;;;;;;4958208;28;20987;-40
2022/08/19 01:09:19;;;;;;;21.43;15.93;;;;;;;;;;4956546;28;20277;-40
2022/08/19 01:11:46;;;;;;;19.37;16.73;;;;;;;;;;4955595;28;20602;-41
2022/08/19 01:14:12;;;;;;;17.33;11.73;;;;;;;;;;4957160;28;20261;-38
2022/08/19 01:16:39;;;;;;;16.93;12.70;;;;;;;;;;4957649;28;20927;-41
2022/08/19 01:19:17;;;;;;;13.33;9.40;;;;;;;;;;4952137;28;20552;-42
2022/08/19 01:21:48;;;;;;;15.40;10.70;;;;;;;;;;4955765;28;20554;-40
2022/08/19 01:24:14;;;;;;;12.00;8.40;;;;;;;;;;4958073;28;20671;-39
2022/08/19 01:26:42;;;;;;;12.60;8.70;;;;;;;;;;4954909;28;20178;-41
2022/08/19 01:29:09;;;;;;;11.83;7.63;;;;;;;;;;4953774;28;20297;-40
2022/08/19 01:31:36;;;;;;;9.67;7.07;;;;;;;;;;4957164;28;20583;-42
2022/08/19 01:34:02;;;;;;;15.57;7.27;;;;;;;;;;4953719;28;20519;-40
2022/08/19 01:36:31;;;;;;;13.17;7.07;;;;;;;;;;4956207;28;20539;-39
2022/08/19 01:38:57;;;;;;;8.80;5.90;;;;;;;;;;4957175;28;20987;-41
2022/08/19 01:41:24;;;;;;;9.60;5.87;;;;;;;;;;4953070;28;20185;-42
2022/08/19 01:43:50;;;;;;;10.03;6.03;;;;;;;;;;4955631;28;20194;-42
2022/08/19 01:46:17;;;;;;;10.73;6.53;;;;;;;;;;4956262;28;20170;-42
2022/08/19 01:48:43;;;;;;;14.50;7.33;;;;;;;;;;4952792;28;20189;-41
2022/08/19 01:51:11;;;;;;;11.10;6.80;;;;;;;;;;4953816;28;20384;-41
2022/08/19 01:53:37;;;;;;;10.07;6.10;;;;;;;;;;4955736;28;20216;-42
2022/08/19 01:56:04;;;;;;;11.63;7.10;;;;;;;;;;4957033;28;20237;-41
2022/08/19 01:58:36;;;;;;;11.47;7.13;;;;;;;;;;4954078;28;20186;-40
2022/08/19 02:01:03;;;;;;;12.83;6.50;;;;;;;;;;4954725;28;20202;-40
2022/08/19 02:03:30;;;;;;;11.10;7.27;;;;;;;;;;4955764;28;20445;-42
2022/08/19 02:06:00;;;;;;;10.53;6.87;;;;;;;;;;4957959;28;20484;-42
2022/08/19 02:08:29;;;;;;;14.23;7.53;;;;;;;;;;4954520;28;20310;-39
2022/08/19 02:10:56;;;;;;;11.83;7.53;;;;;;;;;;4955097;28;20719;-40
2022/08/19 02:13:22;;;;;;;13.53;7.30;;;;;;;;;;4960291;28;20566;-42
2022/08/19 02:15:49;;;;;;;12.20;7.40;;;;;;;;;;4953096;28;20190;-41
2022/08/19 02:18:15;;;;;;;13.90;7.60;;;;;;;;;;4955935;28;20188;-41
2022/08/19 02:20:42;;;;;;;15.23;7.80;;;;;;;;;;4953482;28;20701;-40
2022/08/19 02:23:08;;;;;;;13.17;8.10;;;;;;;;;;4955422;28;20737;-41
2022/08/19 02:25:34;;;;;;;11.60;7.93;;;;;;;;;;4955743;28;20610;-41
2022/08/19 02:28:00;;;;;;;10.13;6.80;;;;;;;;;;4953048;28;20181;-42
2022/08/19 02:30:26;;;;;;;12.93;7.73;;;;;;;;;;4952611;28;20174;-43
2022/08/19 02:32:53;;;;;;;11.27;7.03;;;;;;;;;;4955704;28;20193;-42
2022/08/19 02:35:19;;;;;;;10.67;6.83;;;;;;;;;;4954525;28;20790;-43
2022/08/19 02:40:34;;;;;;;6.30;3.73;;;;;;;;;;4956096;28;20408;-43
2022/08/19 02:43:00;;;;;;;7.43;3.73;;;;;;;;;;4955455;28;20497;-43
2022/08/19 02:45:26;;;;;;;7.57;3.10;;;;;;;;;;4954541;28;20186;-42
2022/08/19 02:47:52;;;;;;;6.50;3.17;;;;;;;;;;4953506;28;20177;-44
2022/08/19 02:50:19;;;;;;;6.33;2.80;;;;;;;;;;4955986;28;20750;-44
2022/08/19 02:52:45;;;;;;;5.50;2.50;;;;;;;;;;4952396;28;20193;-43
2022/08/19 02:55:11;;;;;;;6.77;2.33;;;;;;;;;;4953769;28;20667;-44
2022/08/19 02:57:37;;;;;;;6.20;2.37;;;;;;;;;;4955738;28;20458;-44
2022/08/19 03:00:08;;;;;;;8.07;2.67;;;;;;;;;;4951654;28;20189;-44
2022/08/19 03:02:34;;;;;;;10.60;2.80;;;;;;;;;;4953633;28;20229;-44
2022/08/19 03:05:01;;;;;;;3.63;1.90;;;;;;;;;;4956328;28;20183;-44
2022/08/19 03:07:27;;;;;;;6.67;2.23;;;;;;;;;;4955222;28;20182;-44
2022/08/19 03:09:53;;;;;;;9.27;2.50;;;;;;;;;;4953285;28;20512;-44
2022/08/19 03:12:19;;;;;;;5.60;2.00;;;;;;;;;;4953828;28;20174;-44
2022/08/19 03:14:46;;;;;;;6.83;2.40;;;;;;;;;;4956270;28;20290;-44
2022/08/19 03:17:12;;;;;;;5.73;2.37;;;;;;;;;;4953475;28;20524;-44
2022/08/19 03:19:38;;;;;;;3.63;2.20;;;;;;;;;;4964649;28;20409;-44
2022/08/19 03:22:04;;;;;;;5.07;2.33;;;;;;;;;;4953668;28;20705;-44
2022/08/19 03:24:31;;;;;;;6.50;2.30;;;;;;;;;;4957261;28;20178;-44
2022/08/19 03:26:58;;;;;;;5.43;2.50;;;;;;;;;;4955943;28;20206;-44
2022/08/19 03:29:26;;;;;;;6.57;2.43;;;;;;;;;;4949549;28;20212;-44
2022/08/19 03:31:52;;;;;;;6.10;2.20;;;;;;;;;;4954232;28;20182;-44
2022/08/19 03:34:20;;;;;;;5.70;2.33;;;;;;;;;;4957543;28;20642;-43
2022/08/19 03:36:46;;;;;;;6.40;2.27;;;;;;;;;;4953759;28;20181;-44
2022/08/19 03:39:12;;;;;;;6.47;2.83;;;;;;;;;;4950779;28;20393;-44
2022/08/19 03:41:40;;;;;;;5.57;2.47;;;;;;;;;;4956710;28;20520;-44
2022/08/19 03:44:08;;;;;;;6.50;2.53;;;;;;;;;;4953274;28;20194;-44
2022/08/19 03:46:34;;;;;;;6.40;2.67;;;;;;;;;;4953483;28;20185;-44
2022/08/19 03:49:03;;;;;;;5.77;2.80;;;;;;;;;;4952496;28;20182;-44
2022/08/19 03:51:31;;;;;;;6.07;2.70;;;;;;;;;;4955932;28;20586;-44
2022/08/19 03:53:58;;;;;;;6.97;3.10;;;;;;;;;;4958312;28;20252;-44
2022/08/19 03:56:30;;;;;;;6.70;3.37;;;;;;;;;;4959883;28;20323;-44
2022/08/19 03:58:57;;;;;;;8.77;3.40;;;;;;;;;;4961109;28;20531;-45
2022/08/19 04:01:24;;;;;;;9.77;4.03;;;;;;;;;;4961022;28;20186;-44
2022/08/19 04:03:50;;;;;;;5.53;2.67;;;;;;;;;;4959172;28;20202;-45
2022/08/19 04:06:21;;;;;;;5.83;3.40;;;;;;;;;;4961431;28;20881;-45
2022/08/19 04:08:48;;;;;;;7.53;3.20;;;;;;;;;;4959662;28;20439;-45
2022/08/19 04:11:16;;;;;;;8.60;3.60;;;;;;;;;;4957534;28;21996;-44
2022/08/19 04:13:44;;;;;;;4.87;3.10;;;;;;;;;;4958418;28;20643;-45
2022/08/19 04:16:10;;;;;;;7.97;3.67;;;;;;;;;;4961396;28;20706;-44
2022/08/19 04:18:37;;;;;;;9.67;4.20;;;;;;;;;;4956775;28;20262;-44
2022/08/19 04:21:03;;;;;;;7.13;3.80;;;;;;;;;;4959862;28;20292;-45
2022/08/19 04:23:29;;;;;;;8.87;3.97;;;;;;;;;;4959980;28;20757;-45
2022/08/19 04:25:56;;;;;;;8.20;3.83;;;;;;;;;;4958828;28;20293;-44
2022/08/19 04:28:22;;;;;;;8.47;4.47;;;;;;;;;;4957079;28;20178;-45
2022/08/19 04:30:50;;;;;;;9.17;3.60;;;;;;;;;;4958810;28;20913;-45
2022/08/19 04:33:18;;;;;;;7.80;3.70;;;;;;;;;;4962756;28;20746;-44
2022/08/19 04:35:46;;;;;;;7.93;3.70;;;;;;;;;;4959153;28;20182;-45
2022/08/19 04:38:13;;;;;;;6.57;3.37;;;;;;;;;;4960267;28;20243;-45
2022/08/19 04:43:31;;;;;;;7.70;4.00;;;;;;;;;;4956198;28;20939;-44
2022/08/19 04:45:57;;;;;;;12.47;4.77;;;;;;;;;;4960901;28;20175;-43
2022/08/19 04:48:26;;;;;;;9.80;4.60;;;;;;;;;;4959677;28;20182;-40
2022/08/19 04:50:57;;;;;;;11.80;5.37;;;;;;;;;;4957989;28;20438;-40
2022/08/19 04:53:24;;;;;;;13.30;5.63;;;;;;;;;;4958811;28;20308;-42
2022/08/19 04:55:51;;;;;;;9.93;5.27;;;;;;;;;;4961884;28;20240;-42
2022/08/19 04:58:17;;;;;;;13.40;6.43;;;;;;;;;;4958398;28;20464;-42
2022/08/19 05:00:44;;;;;;;16.50;7.70;;;;;;;;;;4958611;28;20560;-42
2022/08/19 05:03:10;;;;;;;19.07;8.60;;;;;;;;;;4957461;28;20210;-41
2022/08/19 05:05:44;;;;;;;17.10;9.50;;;;;;;;;;4955134;28;20583;-42
2022/08/19 05:08:11;;;;;;;16.93;9.17;;;;;;;;;;4953290;28;20419;-41
2022/08/19 05:10:38;;;;;;;17.17;8.27;;;;;;;;;;4958170;28;20297;-41
2022/08/19 05:13:04;;;;;;;12.40;5.97;;;;;;;;;;4956483;28;20650;-42
2022/08/19 05:15:30;;;;;;;10.20;4.37;;;;;;;;;;4955233;28;20607;-42
2022/08/19 05:23:26;;;;;;;14.53;4.53;;;;;;;;;;4955385;28;20232;-41
2022/08/19 05:25:52;;;;;;;8.80;4.40;;;;;;;;;;4956255;28;20193;-40
2022/08/19 05:28:19;;;;;;;11.37;4.30;;;;;;;;;;4954958;28;20437;-41
2022/08/19 05:30:45;;;;;;;8.37;3.60;;;;;;;;;;4957674;28;21011;-42
2022/08/19 05:33:12;;;;;;;6.40;3.27;;;;;;;;;;4958338;28;20556;-42
2022/08/19 05:35:40;;;;;;;4.97;2.40;;;;;;;;;;4953118;28;20182;-42
2022/08/19 05:38:08;;;;;;;4.40;2.63;;;;;;;;;;4955283;28;20232;-42
2022/08/19 05:40:38;;;;;;;6.27;2.87;;;;;;;;;;4971829;28;20190;-41
2022/08/19 05:43:05;;;;;;;5.53;2.70;;;;;;;;;;4954771;28;20202;-41
2022/08/19 05:45:31;;;;;;;7.30;2.50;;;;;;;;;;4954487;28;20178;-43
2022/08/19 05:47:58;;;;;;;5.97;2.47;;;;;;;;;;4958838;28;20189;-42
2022/08/19 05:50:26;;;;;;;4.80;2.47;;;;;;;;;;4954205;28;20324;-42
2022/08/19 05:52:52;;;;;;;5.57;2.27;;;;;;;;;;4954002;28;20182;-41
2022/08/19 05:55:20;;;;;;;6.63;3.53;;;;;;;;;;4953080;28;20661;-41
2022/08/19 05:57:46;;;;;;;5.67;3.00;;;;;;;;;;4955610;28;20804;-43
2022/08/19 06:00:13;;;;;;;6.60;3.30;;;;;;;;;;4953321;28;20567;-42
2022/08/19 06:02:39;;;;;;;4.87;2.30;;;;;;;;;;4952848;28;20236;-43
2022/08/19 06:05:08;;;;;;;4.07;2.33;;;;;;;;;;4951398;28;20208;-41
2022/08/19 06:07:38;;;;;;;5.47;2.40;;;;;;;;;;4952473;28;20170;-40
2022/08/19 06:10:05;;;;;;;10.00;3.07;;;;;;;;;;4952943;28;20626;-43
2022/08/19 06:12:34;;;;;;;7.37;2.97;;;;;;;;;;4953826;28;20265;-40
2022/08/19 06:15:01;;;;;;;7.93;2.70;;;;;;;;;;4952363;28;20482;-41
2022/08/19 06:17:29;;;;;;;6.03;2.03;;;;;;;;;;4950631;28;20213;-42
2022/08/19 06:19:55;;;;;;;3.77;1.77;;;;;;;;;;4950288;28;20785;-41
2022/08/19 06:22:22;;;;;;;3.93;1.43;;;;;;;;;;4954558;28;20198;-40
2022/08/19 06:24:52;;;;;;;4.47;1.27;;;;;;;;;;4955130;28;20870;-40
2022/08/19 06:27:18;;;;;;;3.47;1.20;;;;;;;;;;4952897;28;21013;-41
2022/08/19 06:29:46;;;;;;;2.83;1.23;;;;;;;;;;4952427;28;20564;-42
2022/08/19 06:32:13;;;;;;;4.73;1.47;;;;;;;;;;4953227;28;20461;-42
2022/08/19 06:34:40;;;;;;;3.13;1.40;;;;;;;;;;4950048;28;20909;-40
2022/08/19 06:37:06;;;;;;;3.67;1.10;;;;;;;;;;4952734;28;20964;-41
2022/08/19 06:39:36;;;;;;;2.27;1.03;;;;;;;;;;4953483;28;20198;-42
2022/08/19 06:42:05;;;;;;;3.53;1.20;;;;;;;;;;4950118;28;20457;-43
2022/08/19 06:44:34;;;;;;;2.23;1.00;;;;;;;;;;4951528;28;20429;-43
2022/08/19 06:47:02;;;;;;;1.87;0.90;;;;;;;;;;4954852;28;20185;-43
2022/08/19 06:49:30;;;;;;;2.97;1.10;;;;;;;;;;4951086;28;20654;-43
2022/08/19 06:51:57;;;;;;;1.80;0.97;;;;;;;;;;4950082;28;20417;-43
2022/08/19 06:54:23;;;;;;;1.93;1.00;;;;;;;;;;4953155;28;20179;-43
2022/08/19 06:56:49;;;;;;;1.43;0.90;;;;;;;;;;4940797;28;20567;-44
2022/08/19 06:59:18;;;;;;;3.37;0.97;;;;;;;;;;4952613;28;20260;-42
2022/08/19 07:01:48;;;;;;;1.20;0.90;;;;;;;;;;4951244;28;20668;-42
2022/08/19 07:04:15;;;;;;;1.40;1.00;;;;;;;;;;4950693;28;20201;-43
2022/08/19 07:06:41;;;;;;;1.80;0.97;;;;;;;;;;4951308;28;20178;-43
2022/08/19 07:09:09;;;;;;;1.43;1.07;;;;;;;;;;4950895;28;20683;-42
2022/08/19 07:11:35;;;;;;;3.37;0.90;;;;;;;;;;4949724;28;20182;-44
2022/08/19 07:14:01;;;;;;;1.43;0.90;;;;;;;;;;4951018;28;20707;-44
2022/08/19 07:16:28;;;;;;;3.63;0.90;;;;;;;;;;4951983;28;20300;-44
2022/08/19 07:18:55;;;;;;;1.43;0.90;;;;;;;;;;4965464;28;20178;-44
2022/08/19 07:21:23;;;;;;;1.73;1.07;;;;;;;;;;4948056;28;20911;-44
2022/08/19 07:23:51;;;;;;;2.50;1.00;;;;;;;;;;4950129;28;20649;-44
2022/08/19 07:26:25;;;;;;;1.60;1.03;;;;;;;;;;4965250;28;20344;-45
2022/08/19 07:28:52;;;;;;;2.17;1.10;;;;;;;;;;4951195;28;20176;-44
2022/08/19 07:31:20;;;;;;;2.60;1.10;;;;;;;;;;4949845;28;20185;-44
2022/08/19 07:33:47;;;;;;;2.10;1.20;;;;;;;;;;4950022;28;20754;-44
2022/08/19 07:36:15;;;;;;;2.03;1.23;;;;;;;;;;4950572;28;20193;-44
2022/08/19 07:38:42;;;;;;;2.93;1.20;;;;;;;;;;4951548;28;20521;-45
2022/08/19 07:41:13;;;;;;;1.97;1.30;;;;;;;;;;4947530;28;21324;-44
2022/08/19 07:43:39;;;;;;;3.33;1.40;;;;;;;;;;4949384;28;20237;-44
2022/08/19 07:46:06;;;;;;;1.77;1.23;;;;;;;;;;4952485;28;20182;-45
2022/08/19 07:48:32;;;;;;;1.53;1.20;;;;;;;;;;4951028;28;20286;-45
2022/08/19 07:51:01;;;;;;;1.97;1.10;;;;;;;;;;4947035;28;20182;-43
2022/08/19 07:53:28;;;;;;;1.90;1.20;;;;;;;;;;4950925;28;20764;-45
2022/08/19 07:55:54;;;;;;;2.60;1.20;;;;;;;;;;4952172;28;20337;-45
2022/08/19 07:58:22;;;;;;;2.70;1.20;;;;;;;;;;4949184;28;20186;-45
2022/08/19 08:00:49;;;;;;;1.70;1.60;;;;;;;;;;4950244;28;20182;-45
2022/08/19 08:03:16;;;;;;;2.20;1.57;;;;;;;;;;4952280;28;20280;-45
2022/08/19 08:11:04;;;;;;;1.27;1.17;;;;;;;;;;4947606;28;20873;-46
2022/08/19 08:13:30;;;;;;;2.07;1.40;;;;;;;;;;4949476;28;20549;-46
2022/08/19 08:15:57;;;;;;;2.10;1.57;;;;;;;;;;4954534;28;20668;-47
2022/08/19 08:18:23;;;;;;;3.33;1.80;;;;;;;;;;4950186;28;20558;-46
2022/08/19 08:20:50;;;;;;;2.87;1.80;;;;;;;;;;4946678;28;20655;-46
2022/08/19 08:23:22;;;;;;;4.03;1.50;;;;;;;;;;4949205;28;20198;-46
2022/08/19 08:25:48;;;;;;;2.93;1.47;;;;;;;;;;4952438;28;20183;-46
2022/08/19 08:28:15;;;;;;;2.47;1.60;;;;;;;;;;4948520;28;20518;-46
2022/08/19 08:30:43;;;;;;;2.10;1.40;;;;;;;;;;4947903;28;20179;-46
2022/08/19 08:33:09;;;;;;;3.00;1.30;;;;;;;;;;4951401;28;20186;-46
2022/08/19 08:35:35;;;;;;;1.90;1.20;;;;;;;;;;4964210;28;20179;-46
2022/08/19 08:38:04;;;;;;;2.50;1.43;;;;;;;;;;4950727;28;20213;-47
2022/08/19 08:40:42;;;;;;;3.37;1.13;;;;;;;;;;4950920;28;20586;-47
2022/08/19 08:43:08;;;;;;;2.40;1.10;;;;;;;;;;4955890;28;20675;-47
2022/08/19 08:45:36;;;;;;;2.33;1.10;;;;;;;;;;4955514;28;20193;-47
2022/08/19 08:48:04;;;;;;;2.40;1.30;;;;;;;;;;4954897;28;20289;-47
2022/08/19 08:50:40;;;;;;;2.20;1.27;;;;;;;;;;4955787;28;20572;-47
2022/08/19 08:53:07;;;;;;;1.80;1.33;;;;;;;;;;4952904;28;20404;-47
2022/08/19 08:55:33;;;;;;;2.33;1.10;;;;;;;;;;4952484;28;20503;-47
2022/08/19 08:58:05;;;;;;;2.77;1.50;;;;;;;;;;4956439;28;20604;-47
2022/08/19 09:00:33;;;;;;;2.40;1.10;;;;;;;;;;4964048;28;20216;-47
2022/08/19 09:03:03;;;;;;;3.33;1.20;;;;;;;;;;4953316;28;20198;-47
2022/08/19 09:05:42;;;;;;;2.20;1.30;;;;;;;;;;4956053;28;20242;-47
2022/08/19 09:08:11;;;;;;;3.87;1.20;;;;;;;;;;4954838;28;20520;-47
2022/08/19 09:10:57;;;;;;;3.20;1.47;;;;;;;;;;4951644;28;20410;-48
2022/08/19 09:13:31;;;;;;;2.37;1.20;;;;;;;;;;4954143;28;20299;-47
2022/08/19 09:16:06;;;;;;;3.27;1.40;;;;;;;;;;4952999;28;20186;-48
2022/08/19 09:19:01;;;;;;;2.63;1.20;;;;;;;;;;4950815;28;20534;-47
2022/08/19 09:21:27;;;;;;;3.83;1.23;;;;;;;;;;4953227;28;20202;-47
2022/08/19 09:23:54;;;;;;;4.87;1.20;;;;;;;;;;4955369;28;20836;-47
2022/08/19 09:26:21;;;;;;;2.80;0.93;;;;;;;;;;4953072;28;20534;-47
2022/08/19 09:28:48;;;;;;;4.07;1.00;;;;;;;;;;4950582;28;20486;-48
2022/08/19 09:31:15;;;;;;;2.17;1.20;;;;;;;;;;4953050;28;20194;-48
2022/08/19 09:33:43;;;;;;;3.97;1.93;;;;;;;;;;4953015;28;20796;-47
2022/08/19 09:36:10;;;;;;;3.90;1.30;;;;;;;;;;4951507;28;20710;-47
2022/08/19 09:38:38;;;;;;;2.63;1.30;;;;;;;;;;4953119;28;20221;-46
2022/08/19 09:41:09;;;;;;;3.23;1.40;;;;;;;;;;4957870;28;20213;-47
2022/08/19 09:43:36;;;;;;;3.63;1.27;;;;;;;;;;4949365;28;20205;-47
2022/08/19 09:46:06;;;;;;;2.90;1.40;;;;;;;;;;4950513;28;20190;-47
2022/08/19 09:48:35;;;;;;;3.73;1.40;;;;;;;;;;4955193;28;20353;-47
2022/08/19 09:51:15;;;;;;;2.93;1.20;;;;;;;;;;4956102;28;20561;-47
2022/08/19 09:53:42;;;;;;;2.60;1.17;;;;;;;;;;4952094;28;20182;-47
2022/08/19 09:56:08;;;;;;;2.63;1.17;;;;;;;;;;4952943;28;20186;-47
2022/08/19 09:58:35;;;;;;;3.40;1.20;;;;;;;;;;4951021;28;20194;-47
2022/08/19 10:01:02;;;;;;;2.67;1.10;;;;;;;;;;4952427;28;20186;-47
2022/08/19 10:03:29;;;;;;;1.70;0.83;;;;;;;;;;4951997;28;20193;-47
2022/08/19 10:05:55;;;;;;;2.97;1.00;;;;;;;;;;4955892;28;20606;-47
2022/08/19 10:08:25;;;;;;;4.00;1.57;;;;;;;;;;4951869;28;20863;-47
2022/08/19 10:10:52;;;;;;;1.67;0.90;;;;;;;;;;4950190;28;20717;-47
2022/08/19 10:13:23;;;;;;;2.23;1.00;;;;;;;;;;4950335;28;20412;-47
2022/08/19 10:15:52;;;;;;;1.90;1.20;;;;;;;;;;4954736;28;20189;-47
2022/08/19 10:18:19;;;;;;;2.43;1.20;;;;;;;;;;4951766;28;20311;-47
2022/08/19 10:20:46;;;;;;;2.03;1.03;;;;;;;;;;4951611;28;20182;-47
2022/08/19 10:23:12;;;;;;;2.17;0.90;;;;;;;;;;4954016;28;20202;-47
2022/08/19 10:25:39;;;;;;;2.03;1.00;;;;;;;;;;4952813;28;20178;-47
2022/08/19 10:28:08;;;;;;;1.80;0.90;;;;;;;;;;4950623;28;20471;-47
2022/08/19 10:30:36;;;;;;;2.40;1.10;;;;;;;;;;4951692;28;20300;-46
2022/08/19 10:33:02;;;;;;;3.57;1.13;;;;;;;;;;4954407;28;21621;-47
2022/08/19 10:35:29;;;;;;;1.97;0.90;;;;;;;;;;4951713;28;20534;-47
2022/08/19 10:37:58;;;;;;;1.37;0.93;;;;;;;;;;4948391;28;20378;-47
2022/08/19 10:40:25;;;;;;;2.57;1.07;;;;;;;;;;4952555;28;20879;-47
2022/08/19 10:42:52;;;;;;;2.73;1.03;;;;;;;;;;4950932;28;21340;-47
2022/08/19 10:45:18;;;;;;;4.30;1.10;;;;;;;;;;4952119;28;20390;-47
2022/08/19 10:47:44;;;;;;;2.40;1.03;;;;;;;;;;4949894;28;20174;-47
2022/08/19 10:52:55;;;;;;;1.77;1.00;;;;;;;;;;4954873;28;20192;-47
2022/08/19 10:58:12;;;;;;;1.93;0.97;;;;;;;;;;4949754;28;20263;-47
2022/08/19 11:00:38;;;;;;;2.13;1.03;;;;;;;;;;4951244;28;20614;-46
2022/08/19 11:03:04;;;;;;;3.97;1.10;;;;;;;;;;4950182;28;20530;-46
2022/08/19 11:05:30;;;;;;;3.70;1.40;;;;;;;;;;4950371;28;20877;-46
2022/08/19 11:07:56;;;;;;;4.50;1.20;;;;;;;;;;4953018;28;20663;-46
2022/08/19 11:10:23;;;;;;;2.67;1.10;;;;;;;;;;4953309;28;20189;-47
2022/08/19 11:12:54;;;;;;;3.43;1.33;;;;;;;;;;4948377;28;20808;-47
2022/08/19 11:15:20;;;;;;;1.70;0.90;;;;;;;;;;4950821;28;20177;-47
2022/08/19 11:17:46;;;;;;;3.63;1.30;;;;;;;;;;4952002;28;20244;-46
2022/08/19 11:20:13;;;;;;;2.67;1.20;;;;;;;;;;4950891;28;20446;-46
2022/08/19 11:22:40;;;;;;;1.40;0.87;;;;;;;;;;4948300;28;20694;-46
2022/08/19 11:25:06;;;;;;;3.33;0.90;;;;;;;;;;4952937;28;20244;-46
2022/08/19 11:27:33;;;;;;;1.30;0.80;;;;;;;;;;4951974;28;20197;-46
2022/08/19 11:30:00;;;;;;;1.50;0.77;;;;;;;;;;4950038;28;20279;-45
2022/08/19 11:32:27;;;;;;;1.63;0.80;;;;;;;;;;4951259;28;20178;-46
2022/08/19 11:34:54;;;;;;;2.87;1.20;;;;;;;;;;4951713;28;20505;-46
2022/08/19 11:37:20;;;;;;;2.67;0.73;;;;;;;;;;4953949;28;20190;-46
2022/08/19 11:39:46;;;;;;;5.10;1.37;;;;;;;;;;4952142;28;20996;-46
2022/08/19 11:45:05;;;;;;;3.03;1.03;;;;;;;;;;4936271;28;20446;-46
2022/08/19 11:47:32;;;;;;;1.67;0.80;;;;;;;;;;4951497;28;21157;-46
2022/08/19 11:49:58;;;;;;;1.60;0.87;;;;;;;;;;4950835;28;20418;-46
2022/08/19 11:52:25;;;;;;;1.03;0.83;;;;;;;;;;4951678;28;20647;-46
2022/08/19 11:54:51;;;;;;;2.20;1.00;;;;;;;;;;4949655;28;20580;-46
2022/08/19 11:57:19;;;;;;;2.57;0.80;;;;;;;;;;4948124;28;20179;-46
2022/08/19 11:59:49;;;;;;;0.93;0.70;;;;;;;;;;4952708;28;20166;-46
2022/08/19 12:02:15;;;;;;;2.13;1.00;;;;;;;;;;4951688;28;20170;-46
2022/08/19 12:04:42;;;;;;;2.20;1.10;;;;;;;;;;4949045;28;20213;-46
2022/08/19 12:07:08;;;;;;;1.80;0.83;;;;;;;;;;4949180;28;20280;-46
2022/08/19 12:09:34;;;;;;;2.10;1.10;;;;;;;;;;4951729;28;20178;-46
2022/08/19 12:12:02;;;;;;;1.90;1.10;;;;;;;;;;4953169;28;20201;-46
2022/08/19 12:14:31;;;;;;;1.33;1.00;;;;;;;;;;4952378;28;20416;-46
2022/08/19 12:16:58;;;;;;;3.10;1.00;;;;;;;;;;4955235;28;20299;-46
2022/08/19 12:19:24;;;;;;;4.40;1.00;;;;;;;;;;4955778;28;20220;-47
2022/08/19 12:21:52;;;;;;;4.23;1.10;;;;;;;;;;4953545;28;20170;-46
2022/08/19 12:24:24;;;;;;;4.10;1.20;;;;;;;;;;4954455;28;20208;-46
2022/08/19 12:26:50;;;;;;;2.47;0.90;;;;;;;;;;4955894;28;20269;-46
2022/08/19 12:29:17;;;;;;;2.03;0.90;;;;;;;;;;4953662;28;20173;-46
2022/08/19 12:31:43;;;;;;;3.20;0.80;;;;;;;;;;4952403;28;20178;-46
2022/08/19 12:34:10;;;;;;;1.80;0.80;;;;;;;;;;4954040;28;20488;-46
2022/08/19 12:36:36;;;;;;;4.40;1.10;;;;;;;;;;4956214;28;20552;-47
2022/08/19 12:39:02;;;;;;;4.50;1.00;;;;;;;;;;4958211;28;20194;-46
2022/08/19 12:41:28;;;;;;;1.70;0.73;;;;;;;;;;4953102;28;20544;-46
2022/08/19 12:43:54;;;;;;;2.10;1.00;;;;;;;;;;4954318;28;20754;-46
2022/08/19 12:46:20;;;;;;;1.63;0.90;;;;;;;;;;4956236;28;20182;-46
2022/08/19 12:48:47;;;;;;;2.13;0.70;;;;;;;;;;4955778;28;20571;-46
2022/08/19 12:51:14;;;;;;;0.60;0.60;;;;;;;;;;4952320;28;20857;-46
2022/08/19 12:53:41;;;;;;;2.03;0.80;;;;;;;;;;4955492;28;20182;-46
2022/08/19 12:56:08;;;;;;;1.07;0.73;;;;;;;;;;4954212;28;20185;-47
2022/08/19 12:58:34;;;;;;;1.80;0.90;;;;;;;;;;4951561;28;20178;-46
2022/08/19 13:01:06;;;;;;;1.37;0.67;;;;;;;;;;4952213;28;20733;-46
2022/08/19 13:03:32;;;;;;;1.20;0.70;;;;;;;;;;4953308;28;20197;-46
2022/08/19 13:05:58;;;;;;;1.23;0.80;;;;;;;;;;4955710;28;20734;-46
2022/08/19 13:08:25;;;;;;;1.90;0.80;;;;;;;;;;4956019;28;20178;-46
2022/08/19 13:10:51;;;;;;;1.07;0.60;;;;;;;;;;4952935;28;20174;-46
2022/08/19 13:13:17;;;;;;;1.13;0.60;;;;;;;;;;4951829;28;20217;-46
2022/08/19 13:15:44;;;;;;;1.30;0.90;;;;;;;;;;4953964;28;20209;-46
2022/08/19 13:18:12;;;;;;;1.17;0.70;;;;;;;;;;4956361;28;20330;-46
2022/08/19 13:20:40;;;;;;;1.33;0.70;;;;;;;;;;4956036;28;20728;-47
2022/08/19 13:23:06;;;;;;;0.90;0.63;;;;;;;;;;4951977;28;20194;-46
2022/08/19 13:25:33;;;;;;;1.37;0.77;;;;;;;;;;4952399;28;20194;-47
2022/08/19 13:28:00;;;;;;;1.43;0.70;;;;;;;;;;4951707;28;20225;-46
2022/08/19 13:33:11;;;;;;;0.83;0.60;;;;;;;;;;4948578;28;20201;-46
2022/08/19 13:35:40;;;;;;;2.70;0.80;;;;;;;;;;4950712;28;20205;-46
2022/08/19 13:38:06;;;;;;;3.20;0.63;;;;;;;;;;4955021;28;20197;-46
2022/08/19 13:40:36;;;;;;;1.37;0.70;;;;;;;;;;4952649;28;20579;-46
2022/08/19 13:43:03;;;;;;;1.47;0.80;;;;;;;;;;4951147;28;20202;-46
2022/08/19 13:45:30;;;;;;;2.13;0.60;;;;;;;;;;4953130;28;20493;-46
2022/08/19 13:47:57;;;;;;;3.50;0.90;;;;;;;;;;4954194;28;20952;-46
2022/08/19 13:50:26;;;;;;;1.10;0.60;;;;;;;;;;4951533;28;20753;-46
2022/08/19 13:52:52;;;;;;;1.53;0.83;;;;;;;;;;4950293;28;20182;-46
2022/08/19 13:55:19;;;;;;;1.80;0.90;;;;;;;;;;4950789;28;20179;-46
2022/08/19 13:57:45;;;;;;;1.20;0.60;;;;;;;;;;4953636;28;20418;-46
2022/08/19 14:00:19;;;;;;;2.60;0.70;;;;;;;;;;4949307;28;20174;-46
2022/08/19 14:02:46;;;;;;;0.83;0.70;;;;;;;;;;4949080;28;20241;-46
2022/08/19 14:05:14;;;;;;;1.60;0.50;;;;;;;;;;4951996;28;20749;-46
2022/08/19 14:07:41;;;;;;;0.97;0.70;;;;;;;;;;4951612;28;20445;-47
2022/08/19 14:10:08;;;;;;;2.40;0.80;;;;;;;;;;4950394;28;20719;-46
2022/08/19 14:12:34;;;;;;;1.87;0.80;;;;;;;;;;4951730;28;20244;-46
2022/08/19 14:15:00;;;;;;;2.80;0.80;;;;;;;;;;4968066;28;20212;-46
2022/08/19 14:17:27;;;;;;;2.43;0.60;;;;;;;;;;4949643;28;20731;-46
2022/08/19 14:19:57;;;;;;;1.53;0.90;;;;;;;;;;4950927;28;21143;-46
2022/08/19 14:22:23;;;;;;;3.40;1.00;;;;;;;;;;4953971;28;20542;-45
2022/08/19 14:24:50;;;;;;;1.77;0.80;;;;;;;;;;4947523;28;20213;-46
2022/08/19 14:27:16;;;;;;;1.87;0.80;;;;;;;;;;4947244;28;20189;-46
2022/08/19 14:29:42;;;;;;;2.47;0.80;;;;;;;;;;4948680;28;20956;-46
2022/08/19 14:32:08;;;;;;;1.10;0.67;;;;;;;;;;4947589;28;20217;-46
2022/08/19 14:34:37;;;;;;;2.10;0.70;;;;;;;;;;4947502;28;20523;-46
2022/08/19 14:37:03;;;;;;;1.60;0.80;;;;;;;;;;4947591;28;20964;-46
2022/08/19 14:39:29;;;;;;;6.23;1.30;;;;;;;;;;4948819;28;20253;-46
2022/08/19 14:41:56;;;;;;;2.40;1.00;;;;;;;;;;4948673;28;20292;-46
2022/08/19 14:44:22;;;;;;;4.93;1.37;;;;;;;;;;4952220;28;20473;-45
2022/08/19 14:46:48;;;;;;;2.87;0.93;;;;;;;;;;4946127;28;20413;-46
2022/08/19 14:49:14;;;;;;;3.13;1.10;;;;;;;;;;4952789;28;20675;-45
2022/08/19 14:51:40;;;;;;;1.67;0.90;;;;;;;;;;4964226;28;20225;-46
2022/08/19 14:54:07;;;;;;;1.70;0.90;;;;;;;;;;4947507;28;20178;-46
2022/08/19 14:56:33;;;;;;;3.60;1.20;;;;;;;;;;4948862;28;20185;-46
2022/08/19 14:59:00;;;;;;;4.10;1.37;;;;;;;;;;4966146;28;20269;-46
2022/08/19 15:01:27;;;;;;;1.30;0.70;;;;;;;;;;4949614;28;20240;-46
2022/08/19 15:03:54;;;;;;;1.73;0.97;;;;;;;;;;4949243;28;20683;-44
2022/08/19 15:06:21;;;;;;;3.60;1.20;;;;;;;;;;4952973;28;20516;-44